sensor_id;sensor_type;location;lat;lon;timestamp;P1;durP1;ratioP1;P2;durP2;ratioP2
59512;SDS011;45330;51.634;5.562;2023-04-01T00:01:04;12.18;;;2.60;;
59512;SDS011;45330;51.634;5.562;2023-04-01T00:03:30;14.55;;;3.40;;
59512;SDS011;45330;51.634;5.562;2023-04-01T00:05:57;14.48;;;3.63;;
59512;SDS011;45330;51.634;5.562;2023-04-01T00:08:24;13.15;;;3.03;;
59512;SDS011;45330;51.634;5.562;2023-04-01T00:10:50;12.80;;;2.88;;
59512;SDS011;45330;51.634;5.562;2023-04-01T00:13:16;9.65;;;2.63;;
59512;SDS011;45330;51.634;5.562;2023-04-01T00:15:42;12.63;;;2.90;;
59512;SDS011;45330;51.634;5.562;2023-04-01T00:18:08;13.68;;;2.70;;
59512;SDS011;45330;51.634;5.562;2023-04-01T00:20:34;13.88;;;3.10;;
59512;SDS011;45330;51.634;5.562;2023-04-01T00:22:59;11.20;;;3.00;;
59512;SDS011;45330;51.634;5.562;2023-04-01T00:25:25;11.60;;;2.95;;
59512;SDS011;45330;51.634;5.562;2023-04-01T00:27:51;12.38;;;3.47;;
59512;SDS011;45330;51.634;5.562;2023-04-01T00:30:16;10.77;;;3.20;;
59512;SDS011;45330;51.634;5.562;2023-04-01T00:32:42;9.18;;;3.00;;
59512;SDS011;45330;51.634;5.562;2023-04-01T00:35:08;8.43;;;3.30;;
59512;SDS011;45330;51.634;5.562;2023-04-01T00:37:35;9.20;;;3.33;;
59512;SDS011;45330;51.634;5.562;2023-04-01T00:40:02;11.98;;;3.45;;
59512;SDS011;45330;51.634;5.562;2023-04-01T00:42:29;11.18;;;3.90;;
59512;SDS011;45330;51.634;5.562;2023-04-01T00:44:54;11.65;;;3.85;;
59512;SDS011;45330;51.634;5.562;2023-04-01T00:47:20;13.25;;;4.43;;
59512;SDS011;45330;51.634;5.562;2023-04-01T00:49:48;14.38;;;4.47;;
59512;SDS011;45330;51.634;5.562;2023-04-01T00:52:18;12.52;;;4.70;;
59512;SDS011;45330;51.634;5.562;2023-04-01T00:54:47;13.52;;;4.75;;
59512;SDS011;45330;51.634;5.562;2023-04-01T00:57:17;11.75;;;4.90;;
59512;SDS011;45330;51.634;5.562;2023-04-01T00:59:48;15.07;;;5.22;;
59512;SDS011;45330;51.634;5.562;2023-04-01T01:02:17;17.23;;;6.18;;
59512;SDS011;45330;51.634;5.562;2023-04-01T01:04:44;15.57;;;5.15;;
59512;SDS011;45330;51.634;5.562;2023-04-01T01:07:21;15.75;;;5.55;;
59512;SDS011;45330;51.634;5.562;2023-04-01T01:12:23;18.00;;;6.60;;
59512;SDS011;45330;51.634;5.562;2023-04-01T01:15:01;17.13;;;6.50;;
59512;SDS011;45330;51.634;5.562;2023-04-01T01:18:05;17.63;;;7.03;;
59512;SDS011;45330;51.634;5.562;2023-04-01T01:26:28;19.05;;;7.47;;
59512;SDS011;45330;51.634;5.562;2023-04-01T01:32:00;18.27;;;8.18;;
59512;SDS011;45330;51.634;5.562;2023-04-01T01:34:43;18.87;;;7.93;;
59512;SDS011;45330;51.634;5.562;2023-04-01T01:37:14;20.80;;;9.10;;
59512;SDS011;45330;51.634;5.562;2023-04-01T01:39:43;18.88;;;8.75;;
59512;SDS011;45330;51.634;5.562;2023-04-01T01:42:13;20.45;;;8.98;;
59512;SDS011;45330;51.634;5.562;2023-04-01T01:44:41;19.58;;;8.18;;
59512;SDS011;45330;51.634;5.562;2023-04-01T01:47:09;19.67;;;8.77;;
59512;SDS011;45330;51.634;5.562;2023-04-01T01:49:36;19.38;;;8.80;;
59512;SDS011;45330;51.634;5.562;2023-04-01T01:52:05;18.77;;;7.95;;
59512;SDS011;45330;51.634;5.562;2023-04-01T01:54:31;20.38;;;8.93;;
59512;SDS011;45330;51.634;5.562;2023-04-01T01:56:59;19.33;;;7.93;;
59512;SDS011;45330;51.634;5.562;2023-04-01T01:59:30;19.25;;;7.65;;
59512;SDS011;45330;51.634;5.562;2023-04-01T02:01:58;16.95;;;7.32;;
59512;SDS011;45330;51.634;5.562;2023-04-01T02:04:25;18.45;;;7.72;;
59512;SDS011;45330;51.634;5.562;2023-04-01T02:06:59;18.27;;;7.13;;
59512;SDS011;45330;51.634;5.562;2023-04-01T02:09:28;18.98;;;7.88;;
59512;SDS011;45330;51.634;5.562;2023-04-01T02:12:02;19.63;;;8.60;;
59512;SDS011;45330;51.634;5.562;2023-04-01T02:14:37;19.65;;;7.82;;
59512;SDS011;45330;51.634;5.562;2023-04-01T02:17:12;18.75;;;7.63;;
59512;SDS011;45330;51.634;5.562;2023-04-01T02:19:49;18.52;;;7.88;;
59512;SDS011;45330;51.634;5.562;2023-04-01T02:22:25;21.63;;;9.27;;
59512;SDS011;45330;51.634;5.562;2023-04-01T02:24:53;20.88;;;9.65;;
59512;SDS011;45330;51.634;5.562;2023-04-01T02:27:22;21.58;;;10.07;;
59512;SDS011;45330;51.634;5.562;2023-04-01T02:29:49;23.52;;;10.73;;
59512;SDS011;45330;51.634;5.562;2023-04-01T02:32:15;20.83;;;8.95;;
59512;SDS011;45330;51.634;5.562;2023-04-01T02:34:42;18.13;;;7.50;;
59512;SDS011;45330;51.634;5.562;2023-04-01T02:37:08;17.75;;;6.53;;
59512;SDS011;45330;51.634;5.562;2023-04-01T02:39:33;17.75;;;6.18;;
59512;SDS011;45330;51.634;5.562;2023-04-01T02:41:59;17.48;;;6.38;;
59512;SDS011;45330;51.634;5.562;2023-04-01T02:44:25;17.42;;;6.40;;
59512;SDS011;45330;51.634;5.562;2023-04-01T02:46:51;16.25;;;5.50;;
59512;SDS011;45330;51.634;5.562;2023-04-01T02:49:17;13.10;;;5.15;;
59512;SDS011;45330;51.634;5.562;2023-04-01T02:51:42;15.55;;;5.28;;
59512;SDS011;45330;51.634;5.562;2023-04-01T02:54:08;16.10;;;6.20;;
59512;SDS011;45330;51.634;5.562;2023-04-01T02:56:33;13.70;;;5.43;;
59512;SDS011;45330;51.634;5.562;2023-04-01T02:58:58;18.08;;;6.47;;
59512;SDS011;45330;51.634;5.562;2023-04-01T03:01:24;16.40;;;6.53;;
59512;SDS011;45330;51.634;5.562;2023-04-01T03:03:49;16.83;;;6.90;;
59512;SDS011;45330;51.634;5.562;2023-04-01T03:06:15;18.67;;;7.70;;
59512;SDS011;45330;51.634;5.562;2023-04-01T03:08:41;16.98;;;6.30;;
59512;SDS011;45330;51.634;5.562;2023-04-01T03:11:07;20.20;;;7.05;;
59512;SDS011;45330;51.634;5.562;2023-04-01T03:13:32;18.35;;;6.88;;
59512;SDS011;45330;51.634;5.562;2023-04-01T03:15:58;20.67;;;8.10;;
59512;SDS011;45330;51.634;5.562;2023-04-01T03:18:23;21.50;;;7.95;;
59512;SDS011;45330;51.634;5.562;2023-04-01T03:20:48;20.73;;;8.85;;
59512;SDS011;45330;51.634;5.562;2023-04-01T03:23:15;21.42;;;9.00;;
59512;SDS011;45330;51.634;5.562;2023-04-01T03:25:42;22.63;;;9.38;;
59512;SDS011;45330;51.634;5.562;2023-04-01T03:28:07;22.92;;;10.20;;
59512;SDS011;45330;51.634;5.562;2023-04-01T03:30:33;21.67;;;9.48;;
59512;SDS011;45330;51.634;5.562;2023-04-01T03:32:59;22.10;;;9.30;;
59512;SDS011;45330;51.634;5.562;2023-04-01T03:35:25;23.17;;;9.98;;
59512;SDS011;45330;51.634;5.562;2023-04-01T03:37:51;23.27;;;10.23;;
59512;SDS011;45330;51.634;5.562;2023-04-01T03:40:17;23.48;;;10.10;;
59512;SDS011;45330;51.634;5.562;2023-04-01T03:42:43;22.98;;;10.25;;
59512;SDS011;45330;51.634;5.562;2023-04-01T03:45:08;23.83;;;10.13;;
59512;SDS011;45330;51.634;5.562;2023-04-01T03:47:35;22.15;;;9.75;;
59512;SDS011;45330;51.634;5.562;2023-04-01T03:50:00;24.90;;;9.93;;
59512;SDS011;45330;51.634;5.562;2023-04-01T03:52:26;22.25;;;9.25;;
59512;SDS011;45330;51.634;5.562;2023-04-01T03:54:51;21.88;;;8.55;;
59512;SDS011;45330;51.634;5.562;2023-04-01T03:57:16;19.13;;;7.10;;
59512;SDS011;45330;51.634;5.562;2023-04-01T03:59:42;17.92;;;7.07;;
59512;SDS011;45330;51.634;5.562;2023-04-01T04:02:07;17.73;;;5.70;;
59512;SDS011;45330;51.634;5.562;2023-04-01T04:04:32;14.98;;;5.47;;
59512;SDS011;45330;51.634;5.562;2023-04-01T04:06:58;16.95;;;6.43;;
59512;SDS011;45330;51.634;5.562;2023-04-01T04:09:24;18.05;;;6.00;;
59512;SDS011;45330;51.634;5.562;2023-04-01T04:11:49;17.67;;;6.30;;
59512;SDS011;45330;51.634;5.562;2023-04-01T04:14:15;17.10;;;6.13;;
59512;SDS011;45330;51.634;5.562;2023-04-01T04:16:41;13.63;;;4.97;;
59512;SDS011;45330;51.634;5.562;2023-04-01T04:19:06;14.93;;;5.15;;
59512;SDS011;45330;51.634;5.562;2023-04-01T04:21:32;12.20;;;4.57;;
59512;SDS011;45330;51.634;5.562;2023-04-01T04:24:00;12.43;;;4.63;;
59512;SDS011;45330;51.634;5.562;2023-04-01T04:26:26;11.52;;;4.32;;
59512;SDS011;45330;51.634;5.562;2023-04-01T04:28:53;10.10;;;4.40;;
59512;SDS011;45330;51.634;5.562;2023-04-01T04:31:22;10.75;;;4.38;;
59512;SDS011;45330;51.634;5.562;2023-04-01T04:33:49;9.68;;;3.92;;
59512;SDS011;45330;51.634;5.562;2023-04-01T04:36:15;11.70;;;4.70;;
59512;SDS011;45330;51.634;5.562;2023-04-01T04:38:40;13.82;;;4.80;;
59512;SDS011;45330;51.634;5.562;2023-04-01T04:41:09;13.30;;;5.03;;
59512;SDS011;45330;51.634;5.562;2023-04-01T04:43:36;10.98;;;4.05;;
59512;SDS011;45330;51.634;5.562;2023-04-01T04:46:09;13.38;;;5.03;;
59512;SDS011;45330;51.634;5.562;2023-04-01T04:48:35;12.43;;;5.07;;
59512;SDS011;45330;51.634;5.562;2023-04-01T04:51:01;14.65;;;5.20;;
59512;SDS011;45330;51.634;5.562;2023-04-01T04:53:27;12.50;;;4.80;;
59512;SDS011;45330;51.634;5.562;2023-04-01T04:55:53;12.73;;;4.93;;
59512;SDS011;45330;51.634;5.562;2023-04-01T04:58:18;13.00;;;5.07;;
59512;SDS011;45330;51.634;5.562;2023-04-01T05:00:44;14.05;;;4.63;;
59512;SDS011;45330;51.634;5.562;2023-04-01T05:03:10;15.68;;;5.35;;
59512;SDS011;45330;51.634;5.562;2023-04-01T05:05:35;14.18;;;5.28;;
59512;SDS011;45330;51.634;5.562;2023-04-01T05:08:01;13.63;;;5.30;;
59512;SDS011;45330;51.634;5.562;2023-04-01T05:10:27;15.05;;;5.85;;
59512;SDS011;45330;51.634;5.562;2023-04-01T05:12:53;16.63;;;6.28;;
59512;SDS011;45330;51.634;5.562;2023-04-01T05:15:18;15.70;;;6.70;;
59512;SDS011;45330;51.634;5.562;2023-04-01T05:17:43;16.20;;;6.53;;
59512;SDS011;45330;51.634;5.562;2023-04-01T05:20:10;18.92;;;7.18;;
59512;SDS011;45330;51.634;5.562;2023-04-01T05:22:37;18.48;;;7.13;;
59512;SDS011;45330;51.634;5.562;2023-04-01T05:25:02;16.25;;;6.85;;
59512;SDS011;45330;51.634;5.562;2023-04-01T05:27:28;18.25;;;7.13;;
59512;SDS011;45330;51.634;5.562;2023-04-01T05:29:53;18.55;;;7.72;;
59512;SDS011;45330;51.634;5.562;2023-04-01T05:32:19;18.52;;;7.03;;
59512;SDS011;45330;51.634;5.562;2023-04-01T05:34:44;18.02;;;7.03;;
59512;SDS011;45330;51.634;5.562;2023-04-01T05:37:10;20.08;;;7.72;;
59512;SDS011;45330;51.634;5.562;2023-04-01T05:39:36;17.38;;;7.10;;
59512;SDS011;45330;51.634;5.562;2023-04-01T05:42:02;18.98;;;7.22;;
59512;SDS011;45330;51.634;5.562;2023-04-01T05:44:30;19.27;;;7.53;;
59512;SDS011;45330;51.634;5.562;2023-04-01T05:46:55;19.50;;;8.45;;
59512;SDS011;45330;51.634;5.562;2023-04-01T05:49:21;21.70;;;8.57;;
59512;SDS011;45330;51.634;5.562;2023-04-01T05:51:46;22.00;;;10.15;;
59512;SDS011;45330;51.634;5.562;2023-04-01T05:54:11;23.80;;;11.30;;
59512;SDS011;45330;51.634;5.562;2023-04-01T05:56:37;23.55;;;10.75;;
59512;SDS011;45330;51.634;5.562;2023-04-01T05:59:02;23.88;;;10.82;;
59512;SDS011;45330;51.634;5.562;2023-04-01T06:01:27;24.20;;;12.00;;
59512;SDS011;45330;51.634;5.562;2023-04-01T06:03:53;25.52;;;11.57;;
59512;SDS011;45330;51.634;5.562;2023-04-01T06:06:26;27.38;;;12.68;;
59512;SDS011;45330;51.634;5.562;2023-04-01T06:08:53;26.50;;;13.57;;
59512;SDS011;45330;51.634;5.562;2023-04-01T06:11:34;27.85;;;13.40;;
59512;SDS011;45330;51.634;5.562;2023-04-01T06:14:16;29.25;;;14.00;;
59512;SDS011;45330;51.634;5.562;2023-04-01T06:25:07;30.92;;;15.18;;
59512;SDS011;45330;51.634;5.562;2023-04-01T06:28:03;29.77;;;14.57;;
59512;SDS011;45330;51.634;5.562;2023-04-01T06:41:46;27.83;;;12.70;;
59512;SDS011;45330;51.634;5.562;2023-04-01T06:44:23;28.30;;;12.88;;
59512;SDS011;45330;51.634;5.562;2023-04-01T06:57:49;27.60;;;11.40;;
59512;SDS011;45330;51.634;5.562;2023-04-01T07:05:42;27.38;;;11.30;;
59512;SDS011;45330;51.634;5.562;2023-04-01T07:08:10;29.60;;;11.93;;
59512;SDS011;45330;51.634;5.562;2023-04-01T07:10:47;29.33;;;12.48;;
59512;SDS011;45330;51.634;5.562;2023-04-01T07:13:24;29.80;;;12.50;;
59512;SDS011;45330;51.634;5.562;2023-04-01T07:15:58;28.77;;;11.90;;
59512;SDS011;45330;51.634;5.562;2023-04-01T07:19:12;28.02;;;11.98;;
59512;SDS011;45330;51.634;5.562;2023-04-01T07:21:41;27.33;;;11.75;;
59512;SDS011;45330;51.634;5.562;2023-04-01T07:24:33;31.90;;;12.20;;
59512;SDS011;45330;51.634;5.562;2023-04-01T07:26:59;26.20;;;12.43;;
59512;SDS011;45330;51.634;5.562;2023-04-01T07:29:24;29.67;;;11.82;;
59512;SDS011;45330;51.634;5.562;2023-04-01T07:37:14;28.33;;;10.88;;
59512;SDS011;45330;51.634;5.562;2023-04-01T07:54:16;25.88;;;10.75;;
59512;SDS011;45330;51.634;5.562;2023-04-01T08:05:26;24.75;;;8.90;;
59512;SDS011;45330;51.634;5.562;2023-04-01T08:08:00;21.75;;;8.90;;
59512;SDS011;45330;51.634;5.562;2023-04-01T08:10:52;22.50;;;8.55;;
59512;SDS011;45330;51.634;5.562;2023-04-01T08:13:46;22.85;;;9.60;;
59512;SDS011;45330;51.634;5.562;2023-04-01T08:22:20;27.52;;;11.05;;
59512;SDS011;45330;51.634;5.562;2023-04-01T08:24:52;24.90;;;11.18;;
59512;SDS011;45330;51.634;5.562;2023-04-01T08:27:31;24.67;;;10.73;;
59512;SDS011;45330;51.634;5.562;2023-04-01T08:30:25;23.75;;;10.95;;
59512;SDS011;45330;51.634;5.562;2023-04-01T08:35:36;25.08;;;11.88;;
59512;SDS011;45330;51.634;5.562;2023-04-01T08:38:07;26.92;;;12.05;;
59512;SDS011;45330;51.634;5.562;2023-04-01T08:43:38;27.13;;;11.70;;
59512;SDS011;45330;51.634;5.562;2023-04-01T08:51:40;28.42;;;14.32;;
59512;SDS011;45330;51.634;5.562;2023-04-01T08:57:31;30.23;;;13.88;;
59512;SDS011;45330;51.634;5.562;2023-04-01T09:08:47;27.73;;;14.27;;
59512;SDS011;45330;51.634;5.562;2023-04-01T09:12:09;28.27;;;14.15;;
59512;SDS011;45330;51.634;5.562;2023-04-01T09:25:06;26.23;;;12.63;;
59512;SDS011;45330;51.634;5.562;2023-04-01T09:35:48;26.10;;;11.75;;
59512;SDS011;45330;51.634;5.562;2023-04-01T09:38:35;28.48;;;12.02;;
59512;SDS011;45330;51.634;5.562;2023-04-01T09:44:17;28.27;;;11.80;;
59512;SDS011;45330;51.634;5.562;2023-04-01T10:31:45;20.25;;;8.57;;
59512;SDS011;45330;51.634;5.562;2023-04-01T10:34:23;18.33;;;8.00;;
59512;SDS011;45330;51.634;5.562;2023-04-01T10:54:29;15.60;;;6.55;;
59512;SDS011;45330;51.634;5.562;2023-04-01T11:00:03;15.88;;;6.03;;
59512;SDS011;45330;51.634;5.562;2023-04-01T11:03:44;16.08;;;5.82;;
59512;SDS011;45330;51.634;5.562;2023-04-01T11:20:11;17.30;;;7.00;;
59512;SDS011;45330;51.634;5.562;2023-04-01T11:44:30;19.17;;;8.38;;
59512;SDS011;45330;51.634;5.562;2023-04-01T12:07:03;18.23;;;7.80;;
59512;SDS011;45330;51.634;5.562;2023-04-01T12:09:41;16.23;;;6.38;;
59512;SDS011;45330;51.634;5.562;2023-04-01T12:14:40;14.70;;;5.30;;
59512;SDS011;45330;51.634;5.562;2023-04-01T12:17:30;13.52;;;4.85;;
59512;SDS011;45330;51.634;5.562;2023-04-01T12:22:46;10.50;;;4.55;;
59512;SDS011;45330;51.634;5.562;2023-04-01T12:25:25;11.48;;;4.35;;
59512;SDS011;45330;51.634;5.562;2023-04-01T12:52:51;14.27;;;5.22;;
59512;SDS011;45330;51.634;5.562;2023-04-01T13:17:18;15.65;;;5.63;;
59512;SDS011;45330;51.634;5.562;2023-04-01T13:25:40;15.57;;;5.63;;
59512;SDS011;45330;51.634;5.562;2023-04-01T13:28:20;11.30;;;4.40;;
59512;SDS011;45330;51.634;5.562;2023-04-01T13:30:56;13.13;;;5.13;;
59512;SDS011;45330;51.634;5.562;2023-04-01T13:41:47;10.32;;;4.15;;
59512;SDS011;45330;51.634;5.562;2023-04-01T13:50:12;11.98;;;4.90;;
59512;SDS011;45330;51.634;5.562;2023-04-01T14:31:34;19.40;;;8.13;;
59512;SDS011;45330;51.634;5.562;2023-04-01T14:37:01;19.13;;;7.38;;
59512;SDS011;45330;51.634;5.562;2023-04-01T14:40:05;18.98;;;7.43;;
59512;SDS011;45330;51.634;5.562;2023-04-01T14:48:25;18.10;;;7.45;;
59512;SDS011;45330;51.634;5.562;2023-04-01T14:50:57;18.40;;;7.30;;
59512;SDS011;45330;51.634;5.562;2023-04-01T14:53:34;18.02;;;7.57;;
59512;SDS011;45330;51.634;5.562;2023-04-01T14:56:07;19.63;;;7.95;;
59512;SDS011;45330;51.634;5.562;2023-04-01T14:58:43;19.55;;;7.72;;
59512;SDS011;45330;51.634;5.562;2023-04-01T15:03:56;19.48;;;7.78;;
59512;SDS011;45330;51.634;5.562;2023-04-01T15:09:13;20.17;;;7.28;;
59512;SDS011;45330;51.634;5.562;2023-04-01T15:17:46;20.75;;;8.43;;
59512;SDS011;45330;51.634;5.562;2023-04-01T15:23:25;21.05;;;8.55;;
59512;SDS011;45330;51.634;5.562;2023-04-01T15:31:22;21.27;;;8.67;;
59512;SDS011;45330;51.634;5.562;2023-04-01T15:37:04;21.25;;;8.20;;
59512;SDS011;45330;51.634;5.562;2023-04-01T15:39:54;20.33;;;8.65;;
59512;SDS011;45330;51.634;5.562;2023-04-01T15:42:34;20.20;;;8.10;;
59512;SDS011;45330;51.634;5.562;2023-04-01T15:45:30;23.05;;;8.70;;
59512;SDS011;45330;51.634;5.562;2023-04-01T15:48:30;21.95;;;9.20;;
59512;SDS011;45330;51.634;5.562;2023-04-01T15:51:10;22.90;;;9.10;;
59512;SDS011;45330;51.634;5.562;2023-04-01T15:54:00;22.92;;;9.70;;
59512;SDS011;45330;51.634;5.562;2023-04-01T16:01:59;21.55;;;8.75;;
59512;SDS011;45330;51.634;5.562;2023-04-01T16:04:46;22.42;;;9.63;;
59512;SDS011;45330;51.634;5.562;2023-04-01T16:10:44;22.17;;;8.68;;
59512;SDS011;45330;51.634;5.562;2023-04-01T16:13:32;19.00;;;8.48;;
59512;SDS011;45330;51.634;5.562;2023-04-01T16:24:32;20.95;;;9.02;;
59512;SDS011;45330;51.634;5.562;2023-04-01T16:27:06;20.60;;;8.60;;
59512;SDS011;45330;51.634;5.562;2023-04-01T16:30:16;20.63;;;8.68;;
59512;SDS011;45330;51.634;5.562;2023-04-01T16:41:07;20.40;;;8.82;;
59512;SDS011;45330;51.634;5.562;2023-04-01T16:43:40;19.63;;;7.82;;
59512;SDS011;45330;51.634;5.562;2023-04-01T16:46:45;18.98;;;7.93;;
59512;SDS011;45330;51.634;5.562;2023-04-01T16:59:34;18.02;;;6.57;;
59512;SDS011;45330;51.634;5.562;2023-04-01T17:07:35;16.15;;;6.03;;
59512;SDS011;45330;51.634;5.562;2023-04-01T17:21:07;17.13;;;6.30;;
59512;SDS011;45330;51.634;5.562;2023-04-01T17:23:52;16.25;;;6.25;;
59512;SDS011;45330;51.634;5.562;2023-04-01T17:26:46;14.93;;;6.00;;
59512;SDS011;45330;51.634;5.562;2023-04-01T17:29:28;13.05;;;5.20;;
59512;SDS011;45330;51.634;5.562;2023-04-01T17:38:09;15.73;;;5.80;;
59512;SDS011;45330;51.634;5.562;2023-04-01T17:40:53;14.45;;;5.78;;
59512;SDS011;45330;51.634;5.562;2023-04-01T17:46:28;13.75;;;5.72;;
59512;SDS011;45330;51.634;5.562;2023-04-01T17:52:07;16.13;;;6.32;;
59512;SDS011;45330;51.634;5.562;2023-04-01T17:54:50;16.45;;;6.90;;
59512;SDS011;45330;51.634;5.562;2023-04-01T17:59:53;16.75;;;6.70;;
59512;SDS011;45330;51.634;5.562;2023-04-01T18:22:10;16.63;;;6.47;;
59512;SDS011;45330;51.634;5.562;2023-04-01T18:24:56;16.08;;;6.53;;
59512;SDS011;45330;51.634;5.562;2023-04-01T18:27:29;15.38;;;6.65;;
59512;SDS011;45330;51.634;5.562;2023-04-01T18:30:11;18.40;;;7.33;;
59512;SDS011;45330;51.634;5.562;2023-04-01T18:32:46;15.82;;;6.10;;
59512;SDS011;45330;51.634;5.562;2023-04-01T18:35:45;14.68;;;6.22;;
59512;SDS011;45330;51.634;5.562;2023-04-01T18:38:29;14.95;;;6.60;;
59512;SDS011;45330;51.634;5.562;2023-04-01T18:41:11;14.95;;;6.43;;
59512;SDS011;45330;51.634;5.562;2023-04-01T18:43:43;16.55;;;6.50;;
59512;SDS011;45330;51.634;5.562;2023-04-01T18:52:33;17.55;;;7.45;;
59512;SDS011;45330;51.634;5.562;2023-04-01T18:57:27;18.70;;;7.53;;
59512;SDS011;45330;51.634;5.562;2023-04-01T19:00:18;18.48;;;7.72;;
59512;SDS011;45330;51.634;5.562;2023-04-01T19:05:47;18.42;;;7.90;;
59512;SDS011;45330;51.634;5.562;2023-04-01T19:08:25;19.65;;;8.95;;
59512;SDS011;45330;51.634;5.562;2023-04-01T19:13:24;20.00;;;8.82;;
59512;SDS011;45330;51.634;5.562;2023-04-01T19:30:01;20.02;;;9.40;;
59512;SDS011;45330;51.634;5.562;2023-04-01T19:33:00;20.15;;;10.50;;
59512;SDS011;45330;51.634;5.562;2023-04-01T19:38:43;19.88;;;9.07;;
59512;SDS011;45330;51.634;5.562;2023-04-01T19:44:09;19.52;;;8.57;;
59512;SDS011;45330;51.634;5.562;2023-04-01T19:46:49;19.58;;;9.10;;
59512;SDS011;45330;51.634;5.562;2023-04-01T19:52:31;18.33;;;7.50;;
59512;SDS011;45330;51.634;5.562;2023-04-01T19:58:09;20.08;;;9.02;;
59512;SDS011;45330;51.634;5.562;2023-04-01T20:00:39;19.55;;;9.70;;
59512;SDS011;45330;51.634;5.562;2023-04-01T20:08:19;21.38;;;11.23;;
59512;SDS011;45330;51.634;5.562;2023-04-01T20:13:28;21.67;;;11.02;;
59512;SDS011;45330;51.634;5.562;2023-04-01T20:16:17;22.35;;;11.23;;
59512;SDS011;45330;51.634;5.562;2023-04-01T20:18:55;23.33;;;11.07;;
59512;SDS011;45330;51.634;5.562;2023-04-01T20:21:27;22.67;;;11.27;;
59512;SDS011;45330;51.634;5.562;2023-04-01T20:24:07;21.52;;;10.48;;
59512;SDS011;45330;51.634;5.562;2023-04-01T20:26:39;20.70;;;10.52;;
59512;SDS011;45330;51.634;5.562;2023-04-01T20:29:14;21.88;;;10.45;;
59512;SDS011;45330;51.634;5.562;2023-04-01T20:32:06;22.63;;;12.02;;
59512;SDS011;45330;51.634;5.562;2023-04-01T20:37:40;20.38;;;9.90;;
59512;SDS011;45330;51.634;5.562;2023-04-01T20:43:23;20.83;;;10.50;;
59512;SDS011;45330;51.634;5.562;2023-04-01T20:51:32;21.23;;;10.10;;
59512;SDS011;45330;51.634;5.562;2023-04-01T20:57:12;21.38;;;10.50;;
59512;SDS011;45330;51.634;5.562;2023-04-01T21:00:07;19.77;;;9.88;;
59512;SDS011;45330;51.634;5.562;2023-04-01T21:16:57;19.95;;;10.60;;
59512;SDS011;45330;51.634;5.562;2023-04-01T21:22:45;20.67;;;11.35;;
59512;SDS011;45330;51.634;5.562;2023-04-01T21:30:28;22.67;;;12.05;;
59512;SDS011;45330;51.634;5.562;2023-04-01T21:38:42;21.00;;;10.93;;
59512;SDS011;45330;51.634;5.562;2023-04-01T21:44:14;21.40;;;10.38;;
59512;SDS011;45330;51.634;5.562;2023-04-01T21:47:06;18.95;;;9.38;;
59512;SDS011;45330;51.634;5.562;2023-04-01T21:55:13;21.35;;;11.13;;
59512;SDS011;45330;51.634;5.562;2023-04-01T22:11:34;25.95;;;15.15;;
59512;SDS011;45330;51.634;5.562;2023-04-01T22:16:58;24.63;;;14.65;;
59512;SDS011;45330;51.634;5.562;2023-04-01T22:19:50;24.48;;;15.30;;
59512;SDS011;45330;51.634;5.562;2023-04-01T22:30:54;23.25;;;13.70;;
59512;SDS011;45330;51.634;5.562;2023-04-01T22:36:31;22.25;;;12.50;;
59512;SDS011;45330;51.634;5.562;2023-04-01T22:52:42;23.42;;;13.45;;
59512;SDS011;45330;51.634;5.562;2023-04-01T22:55:15;23.23;;;13.35;;
59512;SDS011;45330;51.634;5.562;2023-04-01T22:57:57;22.75;;;13.10;;
59512;SDS011;45330;51.634;5.562;2023-04-01T23:03:04;21.85;;;11.18;;
59512;SDS011;45330;51.634;5.562;2023-04-01T23:05:39;21.67;;;12.73;;
59512;SDS011;45330;51.634;5.562;2023-04-01T23:25:00;20.45;;;10.52;;
59512;SDS011;45330;51.634;5.562;2023-04-01T23:27:43;20.05;;;10.23;;
59512;SDS011;45330;51.634;5.562;2023-04-01T23:35:59;21.15;;;11.55;;
59512;SDS011;45330;51.634;5.562;2023-04-01T23:38:31;19.85;;;9.98;;
59512;SDS011;45330;51.634;5.562;2023-04-01T23:40:59;20.63;;;10.20;;
59512;SDS011;45330;51.634;5.562;2023-04-01T23:43:26;22.05;;;10.70;;
59512;SDS011;45330;51.634;5.562;2023-04-01T23:45:56;20.35;;;9.75;;
59512;SDS011;45330;51.634;5.562;2023-04-01T23:48:25;19.52;;;10.02;;
59512;SDS011;45330;51.634;5.562;2023-04-01T23:51:01;20.05;;;9.73;;
59512;SDS011;45330;51.634;5.562;2023-04-01T23:53:29;20.17;;;10.00;;
59512;SDS011;45330;51.634;5.562;2023-04-01T23:55:57;19.85;;;9.73;;
59512;SDS011;45330;51.634;5.562;2023-04-01T23:58:27;20.73;;;11.13;;
